sensor_id;sensor_type;location;lat;lon;timestamp;pressure;altitude;pressure_sealevel;temperature;humidity
27425;BME280;15244;49.088;11.886;2023-04-28T00:00:00;95799.66;;;14.36;36.39
27425;BME280;15244;49.088;11.886;2023-04-28T00:05:18;95797.00;;;14.28;36.53
27425;BME280;15244;49.088;11.886;2023-04-28T00:10:46;95801.31;;;14.26;36.44
27425;BME280;15244;49.088;11.886;2023-04-28T00:16:15;95789.59;;;14.22;36.45
27425;BME280;15244;49.088;11.886;2023-04-28T00:21:30;95793.91;;;14.19;36.74
27425;BME280;15244;49.088;11.886;2023-04-28T00:26:59;95790.03;;;14.17;36.85
27425;BME280;15244;49.088;11.886;2023-04-28T00:32:14;95784.59;;;14.13;36.99
27425;BME280;15244;49.088;11.886;2023-04-28T00:37:43;95777.56;;;14.08;37.08
27425;BME280;15244;49.088;11.886;2023-04-28T00:42:59;95785.03;;;14.08;37.19
27425;BME280;15244;49.088;11.886;2023-04-28T00:48:27;95790.94;;;14.03;37.22
27425;BME280;15244;49.088;11.886;2023-04-28T00:53:43;95784.69;;;13.99;37.26
27425;BME280;15244;49.088;11.886;2023-04-28T00:59:11;95764.34;;;13.96;37.36
27425;BME280;15244;49.088;11.886;2023-04-28T01:04:28;95765.94;;;13.94;37.63
27425;BME280;15244;49.088;11.886;2023-04-28T01:09:57;95763.25;;;13.90;37.70
27425;BME280;15244;49.088;11.886;2023-04-28T01:15:17;95760.91;;;13.88;37.84
27425;BME280;15244;49.088;11.886;2023-04-28T01:20:45;95756.63;;;13.84;37.94
27425;BME280;15244;49.088;11.886;2023-04-28T01:26:01;95762.91;;;13.81;37.77
27425;BME280;15244;49.088;11.886;2023-04-28T01:31:29;95752.34;;;13.79;38.00
27425;BME280;15244;49.088;11.886;2023-04-28T01:36:44;95750.41;;;13.76;38.09
27425;BME280;15244;49.088;11.886;2023-04-28T01:42:13;95748.06;;;13.75;38.20
27425;BME280;15244;49.088;11.886;2023-04-28T01:47:28;95750.47;;;13.73;38.28
27425;BME280;15244;49.088;11.886;2023-04-28T01:52:57;95753.22;;;13.69;38.09
27425;BME280;15244;49.088;11.886;2023-04-28T01:58:13;95746.19;;;13.64;38.44
27425;BME280;15244;49.088;11.886;2023-04-28T02:03:41;95736.81;;;13.62;38.37
27425;BME280;15244;49.088;11.886;2023-04-28T02:08:57;95732.16;;;13.59;38.62
27425;BME280;15244;49.088;11.886;2023-04-28T02:14:26;95733.34;;;13.54;38.68
27425;BME280;15244;49.088;11.886;2023-04-28T02:19:40;95727.53;;;13.52;38.83
27425;BME280;15244;49.088;11.886;2023-04-28T02:25:09;95735.75;;;13.49;38.63
27425;BME280;15244;49.088;11.886;2023-04-28T02:30:25;95724.84;;;13.45;38.67
27425;BME280;15244;49.088;11.886;2023-04-28T02:36:00;95715.47;;;13.42;38.75
27425;BME280;15244;49.088;11.886;2023-04-28T02:41:15;95720.94;;;13.42;38.70
27425;BME280;15244;49.088;11.886;2023-04-28T02:46:44;95715.06;;;13.40;38.96
27425;BME280;15244;49.088;11.886;2023-04-28T02:52:00;95716.66;;;13.38;39.07
27425;BME280;15244;49.088;11.886;2023-04-28T02:57:28;95732.31;;;13.37;38.95
27425;BME280;15244;49.088;11.886;2023-04-28T03:02:43;95717.47;;;13.35;39.21
27425;BME280;15244;49.088;11.886;2023-04-28T03:08:12;95715.50;;;13.32;39.03
27425;BME280;15244;49.088;11.886;2023-04-28T03:13:28;95699.50;;;13.30;39.34
27425;BME280;15244;49.088;11.886;2023-04-28T03:18:56;95720.25;;;13.28;39.38
27425;BME280;15244;49.088;11.886;2023-04-28T03:24:11;95693.22;;;13.26;39.28
27425;BME280;15244;49.088;11.886;2023-04-28T03:29:40;95699.13;;;13.25;39.24
27425;BME280;15244;49.088;11.886;2023-04-28T03:34:55;95684.66;;;13.20;39.34
27425;BME280;15244;49.088;11.886;2023-04-28T03:40:24;95679.59;;;13.19;39.29
27425;BME280;15244;49.088;11.886;2023-04-28T03:45:45;95668.66;;;13.15;39.35
27425;BME280;15244;49.088;11.886;2023-04-28T03:51:14;95664.78;;;13.13;39.59
27425;BME280;15244;49.088;11.886;2023-04-28T03:56:30;95669.88;;;13.11;39.58
27425;BME280;15244;49.088;11.886;2023-04-28T04:01:58;95659.72;;;13.08;39.79
27425;BME280;15244;49.088;11.886;2023-04-28T04:07:13;95662.47;;;13.08;39.69
27425;BME280;15244;49.088;11.886;2023-04-28T04:12:42;95673.41;;;13.08;39.68
27425;BME280;15244;49.088;11.886;2023-04-28T04:17:57;95664.44;;;13.07;39.67
27425;BME280;15244;49.088;11.886;2023-04-28T04:23:52;95654.25;;;13.08;39.50
27425;BME280;15244;49.088;11.886;2023-04-28T04:29:07;95664.81;;;13.06;39.81
27425;BME280;15244;49.088;11.886;2023-04-28T04:34:36;95649.97;;;13.07;39.68
27425;BME280;15244;49.088;11.886;2023-04-28T04:39:51;95644.50;;;13.07;39.77
27425;BME280;15244;49.088;11.886;2023-04-28T04:45:29;95642.16;;;13.05;39.72
27425;BME280;15244;49.088;11.886;2023-04-28T04:50:45;95640.19;;;13.06;39.67
27425;BME280;15244;49.088;11.886;2023-04-28T04:56:15;95636.28;;;13.07;39.84
27425;BME280;15244;49.088;11.886;2023-04-28T05:01:30;95614.75;;;13.09;39.94
27425;BME280;15244;49.088;11.886;2023-04-28T05:06:59;95629.22;;;13.09;39.87
27425;BME280;15244;49.088;11.886;2023-04-28T05:12:15;95638.59;;;13.12;39.74
27425;BME280;15244;49.088;11.886;2023-04-28T05:17:44;95642.09;;;13.12;40.06
27425;BME280;15244;49.088;11.886;2023-04-28T05:22:59;95626.84;;;13.15;39.79
27425;BME280;15244;49.088;11.886;2023-04-28T05:28:29;95626.81;;;13.18;39.91
27425;BME280;15244;49.088;11.886;2023-04-28T05:33:44;95628.38;;;13.19;40.03
27425;BME280;15244;49.088;11.886;2023-04-28T05:39:13;95649.03;;;13.24;40.22
27425;BME280;15244;49.088;11.886;2023-04-28T05:44:31;95660.38;;;13.26;40.19
27425;BME280;15244;49.088;11.886;2023-04-28T05:50:00;95652.56;;;13.28;40.22
27425;BME280;15244;49.088;11.886;2023-04-28T05:55:17;95641.22;;;13.30;40.19
27425;BME280;15244;49.088;11.886;2023-04-28T06:00:45;95645.13;;;13.29;40.09
27425;BME280;15244;49.088;11.886;2023-04-28T06:06:01;95646.72;;;13.30;40.52
27425;BME280;15244;49.088;11.886;2023-04-28T06:11:29;95626.75;;;13.29;40.38
27425;BME280;15244;49.088;11.886;2023-04-28T06:16:59;95619.34;;;13.30;40.53
27425;BME280;15244;49.088;11.886;2023-04-28T06:22:13;95608.78;;;13.28;40.83
27425;BME280;15244;49.088;11.886;2023-04-28T06:27:42;95598.19;;;13.30;40.68
27425;BME280;15244;49.088;11.886;2023-04-28T06:32:58;95610.69;;;13.31;40.81
27425;BME280;15244;49.088;11.886;2023-04-28T06:38:26;95619.28;;;13.33;40.92
27425;BME280;15244;49.088;11.886;2023-04-28T06:43:43;95637.28;;;13.34;40.93
27425;BME280;15244;49.088;11.886;2023-04-28T06:49:13;95651.72;;;13.38;40.65
27425;BME280;15244;49.088;11.886;2023-04-28T06:54:33;95664.25;;;13.39;40.95
27425;BME280;15244;49.088;11.886;2023-04-28T07:00:01;95669.69;;;13.43;41.31
27425;BME280;15244;49.088;11.886;2023-04-28T07:05:17;95667.69;;;13.47;41.42
27425;BME280;15244;49.088;11.886;2023-04-28T07:10:46;95652.41;;;13.50;41.86
27425;BME280;15244;49.088;11.886;2023-04-28T07:16:03;95651.22;;;13.51;42.18
27425;BME280;15244;49.088;11.886;2023-04-28T07:21:32;95661.78;;;13.52;42.50
27425;BME280;15244;49.088;11.886;2023-04-28T07:26:48;95656.28;;;13.56;42.90
27425;BME280;15244;49.088;11.886;2023-04-28T07:32:16;95642.53;;;13.59;43.22
27425;BME280;15244;49.088;11.886;2023-04-28T07:37:31;95633.16;;;13.60;43.61
27425;BME280;15244;49.088;11.886;2023-04-28T07:43:00;95640.94;;;13.62;43.71
27425;BME280;15244;49.088;11.886;2023-04-28T07:48:15;95632.38;;;13.60;44.13
27425;BME280;15244;49.088;11.886;2023-04-28T07:53:44;95636.66;;;13.61;44.42
27425;BME280;15244;49.088;11.886;2023-04-28T07:58:59;95629.59;;;13.63;44.65
27425;BME280;15244;49.088;11.886;2023-04-28T08:04:28;95630.75;;;13.66;44.65
27425;BME280;15244;49.088;11.886;2023-04-28T08:09:52;95624.13;;;13.63;44.95
27425;BME280;15244;49.088;11.886;2023-04-28T08:15:21;95616.72;;;13.60;45.16
27425;BME280;15244;49.088;11.886;2023-04-28T08:20:36;95620.22;;;13.61;45.57
27425;BME280;15244;49.088;11.886;2023-04-28T08:26:05;95611.22;;;13.60;45.50
27425;BME280;15244;49.088;11.886;2023-04-28T08:31:20;95614.75;;;13.61;46.14
27425;BME280;15244;49.088;11.886;2023-04-28T08:36:50;95615.50;;;13.65;46.21
27425;BME280;15244;49.088;11.886;2023-04-28T08:42:06;95616.28;;;13.65;46.58
27425;BME280;15244;49.088;11.886;2023-04-28T08:47:38;95629.16;;;13.69;47.06
27425;BME280;15244;49.088;11.886;2023-04-28T08:53:03;95633.47;;;13.66;47.05
27425;BME280;15244;49.088;11.886;2023-04-28T08:58:34;95623.72;;;13.65;47.41
27425;BME280;15244;49.088;11.886;2023-04-28T09:03:49;95638.19;;;13.65;47.79
27425;BME280;15244;49.088;11.886;2023-04-28T09:14:35;95636.22;;;13.66;48.11
27425;BME280;15244;49.088;11.886;2023-04-28T09:20:21;95615.84;;;13.67;48.40
27425;BME280;15244;49.088;11.886;2023-04-28T09:25:36;95586.09;;;13.69;48.91
27425;BME280;15244;49.088;11.886;2023-04-28T09:31:05;95580.59;;;13.73;49.21
27425;BME280;15244;49.088;11.886;2023-04-28T09:36:35;95591.50;;;13.76;49.47
27425;BME280;15244;49.088;11.886;2023-04-28T09:42:04;95568.38;;;13.81;49.28
27425;BME280;15244;49.088;11.886;2023-04-28T09:47:19;95566.78;;;13.83;49.71
27425;BME280;15244;49.088;11.886;2023-04-28T09:52:55;95559.69;;;13.86;49.59
27425;BME280;15244;49.088;11.886;2023-04-28T09:58:12;95557.34;;;13.88;49.70
27425;BME280;15244;49.088;11.886;2023-04-28T10:03:41;95558.88;;;13.89;49.92
27425;BME280;15244;49.088;11.886;2023-04-28T10:08:57;95566.31;;;13.88;49.93
27425;BME280;15244;49.088;11.886;2023-04-28T10:14:26;95559.66;;;13.90;50.03
27425;BME280;15244;49.088;11.886;2023-04-28T10:19:44;95552.63;;;13.88;49.92
27425;BME280;15244;49.088;11.886;2023-04-28T10:25:24;95563.22;;;13.86;50.19
27425;BME280;15244;49.088;11.886;2023-04-28T10:30:39;95552.69;;;13.85;50.50
27425;BME280;15244;49.088;11.886;2023-04-28T10:36:09;95543.31;;;13.82;50.71
27425;BME280;15244;49.088;11.886;2023-04-28T10:41:30;95537.44;;;13.80;50.88
27425;BME280;15244;49.088;11.886;2023-04-28T10:47:06;95527.25;;;13.81;50.83
27425;BME280;15244;49.088;11.886;2023-04-28T11:14:46;95498.91;;;13.95;51.96
27425;BME280;15244;49.088;11.886;2023-04-28T11:20:20;95497.69;;;13.99;52.35
27425;BME280;15244;49.088;11.886;2023-04-28T11:25:55;95498.78;;;14.05;52.09
27425;BME280;15244;49.088;11.886;2023-04-28T11:31:25;95490.91;;;14.07;51.99
27425;BME280;15244;49.088;11.886;2023-04-28T11:36:40;95508.50;;;14.10;52.63
27425;BME280;15244;49.088;11.886;2023-04-28T11:42:09;95498.63;;;14.16;52.54
27425;BME280;15244;49.088;11.886;2023-04-28T11:47:29;95505.97;;;14.23;52.86
27425;BME280;15244;49.088;11.886;2023-04-28T11:52:58;95501.75;;;14.18;52.46
27425;BME280;15244;49.088;11.886;2023-04-28T11:58:20;95504.59;;;14.11;52.41
27425;BME280;15244;49.088;11.886;2023-04-28T12:03:49;95504.59;;;14.11;52.62
27425;BME280;15244;49.088;11.886;2023-04-28T12:09:18;95508.47;;;14.14;53.05
27425;BME280;15244;49.088;11.886;2023-04-28T12:14:57;95515.47;;;14.18;53.08
27425;BME280;15244;49.088;11.886;2023-04-28T12:20:33;95511.47;;;14.23;52.88
27425;BME280;15244;49.088;11.886;2023-04-28T12:26:03;95522.75;;;14.28;52.83
27425;BME280;15244;49.088;11.886;2023-04-28T12:31:18;95522.72;;;14.32;53.08
27425;BME280;15244;49.088;11.886;2023-04-28T12:36:47;95518.31;;;14.38;53.33
27425;BME280;15244;49.088;11.886;2023-04-28T12:42:02;95520.94;;;14.45;53.30
27425;BME280;15244;49.088;11.886;2023-04-28T12:47:31;95511.13;;;14.48;53.63
27425;BME280;15244;49.088;11.886;2023-04-28T12:52:46;95509.88;;;14.56;54.07
27425;BME280;15244;49.088;11.886;2023-04-28T12:58:16;95507.78;;;14.64;54.01
27425;BME280;15244;49.088;11.886;2023-04-28T13:03:31;95510.00;;;14.72;54.71
27425;BME280;15244;49.088;11.886;2023-04-28T13:09:00;95515.03;;;14.78;54.24
27425;BME280;15244;49.088;11.886;2023-04-28T13:14:15;95502.81;;;14.82;54.50
27425;BME280;15244;49.088;11.886;2023-04-28T13:19:44;95490.59;;;14.87;54.53
27425;BME280;15244;49.088;11.886;2023-04-28T13:24:59;95481.44;;;14.93;54.46
27425;BME280;15244;49.088;11.886;2023-04-28T13:30:28;95470.34;;;15.01;54.90
27425;BME280;15244;49.088;11.886;2023-04-28T13:35:43;95483.09;;;15.11;54.86
27425;BME280;15244;49.088;11.886;2023-04-28T13:41:12;95476.00;;;15.13;54.22
27425;BME280;15244;49.088;11.886;2023-04-28T13:46:27;95461.03;;;15.18;54.78
27425;BME280;15244;49.088;11.886;2023-04-28T13:51:56;95470.75;;;15.23;54.80
27425;BME280;15244;49.088;11.886;2023-04-28T13:57:11;95453.44;;;15.26;54.81
27425;BME280;15244;49.088;11.886;2023-04-28T14:02:40;95463.94;;;15.31;55.13
27425;BME280;15244;49.088;11.886;2023-04-28T14:07:56;95470.91;;;15.35;55.26
27425;BME280;15244;49.088;11.886;2023-04-28T14:13:25;95466.13;;;15.39;55.15
27425;BME280;15244;49.088;11.886;2023-04-28T14:18:40;95465.28;;;15.43;55.29
27425;BME280;15244;49.088;11.886;2023-04-28T14:24:09;95471.84;;;15.49;55.30
27425;BME280;15244;49.088;11.886;2023-04-28T14:29:24;95465.47;;;15.52;55.44
27425;BME280;15244;49.088;11.886;2023-04-28T14:34:53;95443.81;;;15.57;55.36
27425;BME280;15244;49.088;11.886;2023-04-28T14:40:08;95439.78;;;15.62;55.65
27425;BME280;15244;49.088;11.886;2023-04-28T14:45:47;95432.25;;;15.66;55.50
27425;BME280;15244;49.088;11.886;2023-04-28T14:51:16;95424.75;;;15.70;55.58
27425;BME280;15244;49.088;11.886;2023-04-28T14:56:34;95438.41;;;15.74;56.14
27425;BME280;15244;49.088;11.886;2023-04-28T15:02:02;95445.38;;;15.78;55.89
27425;BME280;15244;49.088;11.886;2023-04-28T15:07:21;95441.78;;;15.81;55.95
27425;BME280;15244;49.088;11.886;2023-04-28T15:12:52;95442.53;;;15.82;56.10
27425;BME280;15244;49.088;11.886;2023-04-28T15:18:07;95429.59;;;15.82;55.91
27425;BME280;15244;49.088;11.886;2023-04-28T15:23:36;95410.69;;;15.85;55.98
27425;BME280;15244;49.088;11.886;2023-04-28T15:28:54;95417.31;;;15.87;56.11
27425;BME280;15244;49.088;11.886;2023-04-28T15:34:22;95404.78;;;15.86;55.84
27425;BME280;15244;49.088;11.886;2023-04-28T15:39:37;95407.09;;;15.88;56.37
27425;BME280;15244;49.088;11.886;2023-04-28T15:45:07;95393.34;;;15.88;56.32
27425;BME280;15244;49.088;11.886;2023-04-28T15:50:39;95410.63;;;15.88;56.34
27425;BME280;15244;49.088;11.886;2023-04-28T15:55:54;95414.91;;;15.89;56.51
27425;BME280;15244;49.088;11.886;2023-04-28T16:01:23;95416.88;;;15.89;56.36
27425;BME280;15244;49.088;11.886;2023-04-28T16:06:41;95424.38;;;15.88;56.55
27425;BME280;15244;49.088;11.886;2023-04-28T16:12:10;95413.78;;;15.87;56.51
27425;BME280;15244;49.088;11.886;2023-04-28T16:17:26;95419.28;;;15.87;56.68
27425;BME280;15244;49.088;11.886;2023-04-28T16:22:56;95421.25;;;15.86;56.65
27425;BME280;15244;49.088;11.886;2023-04-28T16:28:11;95411.47;;;15.85;56.73
27425;BME280;15244;49.088;11.886;2023-04-28T16:33:40;95422.53;;;15.81;56.49
27425;BME280;15244;49.088;11.886;2023-04-28T16:38:55;95425.28;;;15.81;56.75
27425;BME280;15244;49.088;11.886;2023-04-28T16:44:24;95418.25;;;15.80;56.83
27425;BME280;15244;49.088;11.886;2023-04-28T16:49:39;95413.50;;;15.81;56.62
27425;BME280;15244;49.088;11.886;2023-04-28T16:55:08;95395.41;;;15.84;57.01
27425;BME280;15244;49.088;11.886;2023-04-28T17:00:29;95407.94;;;15.85;57.25
27425;BME280;15244;49.088;11.886;2023-04-28T17:05:58;95406.41;;;15.84;57.00
27425;BME280;15244;49.088;11.886;2023-04-28T17:11:16;95394.63;;;15.83;57.29
27425;BME280;15244;49.088;11.886;2023-04-28T17:16:44;95393.88;;;15.82;57.10
27425;BME280;15244;49.088;11.886;2023-04-28T17:21:59;95398.25;;;15.80;56.80
27425;BME280;15244;49.088;11.886;2023-04-28T17:27:30;95380.19;;;15.79;57.11
27425;BME280;15244;49.088;11.886;2023-04-28T17:32:45;95389.19;;;15.79;57.52
27425;BME280;15244;49.088;11.886;2023-04-28T17:38:16;95392.78;;;15.76;57.06
27425;BME280;15244;49.088;11.886;2023-04-28T17:43:31;95395.19;;;15.74;57.26
27425;BME280;15244;49.088;11.886;2023-04-28T17:49:00;95407.75;;;15.75;57.31
27425;BME280;15244;49.088;11.886;2023-04-28T17:54:17;95398.75;;;15.75;57.04
27425;BME280;15244;49.088;11.886;2023-04-28T17:59:49;95394.88;;;15.72;57.09
27425;BME280;15244;49.088;11.886;2023-04-28T18:05:12;95400.00;;;15.70;57.34
27425;BME280;15244;49.088;11.886;2023-04-28T18:10:42;95365.88;;;15.68;56.84
27425;BME280;15244;49.088;11.886;2023-04-28T18:15:59;95393.78;;;15.66;57.38
27425;BME280;15244;49.088;11.886;2023-04-28T18:21:31;95384.41;;;15.64;57.44
27425;BME280;15244;49.088;11.886;2023-04-28T18:26:47;95392.28;;;15.61;57.63
27425;BME280;15244;49.088;11.886;2023-04-28T18:32:17;95398.13;;;15.64;57.76
27425;BME280;15244;49.088;11.886;2023-04-28T18:37:32;95413.41;;;15.65;57.34
27425;BME280;15244;49.088;11.886;2023-04-28T18:43:04;95393.00;;;15.66;57.58
27425;BME280;15244;49.088;11.886;2023-04-28T18:48:20;95369.41;;;15.68;57.91
27425;BME280;15244;49.088;11.886;2023-04-28T18:53:49;95387.06;;;15.67;57.90
27425;BME280;15244;49.088;11.886;2023-04-28T18:59:04;95409.84;;;15.68;58.17
27425;BME280;15244;49.088;11.886;2023-04-28T19:04:33;95420.47;;;15.66;58.00
27425;BME280;15244;49.088;11.886;2023-04-28T19:09:48;95440.50;;;15.66;58.20
27425;BME280;15244;49.088;11.886;2023-04-28T19:15:17;95455.44;;;15.65;58.08
27425;BME280;15244;49.088;11.886;2023-04-28T19:20:32;95473.06;;;15.68;58.23
27425;BME280;15244;49.088;11.886;2023-04-28T19:26:06;95465.56;;;15.68;58.08
27425;BME280;15244;49.088;11.886;2023-04-28T19:31:22;95459.31;;;15.68;58.40
27425;BME280;15244;49.088;11.886;2023-04-28T19:36:51;95464.84;;;15.64;58.22
27425;BME280;15244;49.088;11.886;2023-04-28T19:42:12;95468.81;;;15.63;58.08
27425;BME280;15244;49.088;11.886;2023-04-28T19:47:41;95456.22;;;15.66;57.98
27425;BME280;15244;49.088;11.886;2023-04-28T19:52:56;95463.69;;;15.65;58.03
27425;BME280;15244;49.088;11.886;2023-04-28T19:58:28;95456.97;;;15.66;57.99
27425;BME280;15244;49.088;11.886;2023-04-28T20:03:42;95467.25;;;15.62;58.18
27425;BME280;15244;49.088;11.886;2023-04-28T20:09:11;95468.09;;;15.59;57.88
27425;BME280;15244;49.088;11.886;2023-04-28T20:14:29;95465.00;;;15.57;57.80
27425;BME280;15244;49.088;11.886;2023-04-28T20:19:58;95474.09;;;15.54;57.82
27425;BME280;15244;49.088;11.886;2023-04-28T20:25:13;95477.28;;;15.52;58.01
27425;BME280;15244;49.088;11.886;2023-04-28T20:30:43;95490.28;;;15.48;57.82
27425;BME280;15244;49.088;11.886;2023-04-28T20:35:58;95483.66;;;15.46;58.16
27425;BME280;15244;49.088;11.886;2023-04-28T20:41:29;95484.16;;;15.41;58.00
27425;BME280;15244;49.088;11.886;2023-04-28T20:46:52;95490.63;;;15.30;57.97
27425;BME280;15244;49.088;11.886;2023-04-28T20:52:24;95493.91;;;15.22;58.01
27425;BME280;15244;49.088;11.886;2023-04-28T20:57:40;95497.94;;;15.17;58.15
27425;BME280;15244;49.088;11.886;2023-04-28T21:03:09;95495.94;;;15.17;58.44
27425;BME280;15244;49.088;11.886;2023-04-28T21:08:29;95500.66;;;15.17;58.28
27425;BME280;15244;49.088;11.886;2023-04-28T21:14:02;95513.66;;;15.13;58.50
27425;BME280;15244;49.088;11.886;2023-04-28T21:19:17;95509.44;;;15.08;58.56
27425;BME280;15244;49.088;11.886;2023-04-28T21:24:46;95501.25;;;15.05;58.71
27425;BME280;15244;49.088;11.886;2023-04-28T21:30:04;95505.19;;;15.04;58.62
27425;BME280;15244;49.088;11.886;2023-04-28T21:35:35;95505.16;;;15.07;58.82
27425;BME280;15244;49.088;11.886;2023-04-28T21:40:50;95500.78;;;15.10;58.55
27425;BME280;15244;49.088;11.886;2023-04-28T21:46:19;95496.44;;;15.12;58.53
27425;BME280;15244;49.088;11.886;2023-04-28T21:51:48;95485.09;;;15.10;58.32
27425;BME280;15244;49.088;11.886;2023-04-28T21:57:03;95491.41;;;15.07;58.42
27425;BME280;15244;49.088;11.886;2023-04-28T22:02:34;95491.47;;;15.04;57.98
27425;BME280;15244;49.088;11.886;2023-04-28T22:07:50;95495.88;;;14.98;58.02
27425;BME280;15244;49.088;11.886;2023-04-28T22:13:18;95504.53;;;14.96;58.10
27425;BME280;15244;49.088;11.886;2023-04-28T22:18:33;95506.50;;;14.95;58.08
27425;BME280;15244;49.088;11.886;2023-04-28T22:24:02;95504.59;;;14.92;57.93
27425;BME280;15244;49.088;11.886;2023-04-28T22:29:17;95497.56;;;14.91;57.99
27425;BME280;15244;49.088;11.886;2023-04-28T22:34:46;95497.56;;;14.91;58.07
27425;BME280;15244;49.088;11.886;2023-04-28T22:40:03;95496.47;;;14.85;57.94
27425;BME280;15244;49.088;11.886;2023-04-28T22:45:33;95492.22;;;14.81;57.89
27425;BME280;15244;49.088;11.886;2023-04-28T22:50:48;95487.94;;;14.80;58.09
27425;BME280;15244;49.088;11.886;2023-04-28T22:56:17;95487.19;;;14.79;58.04
27425;BME280;15244;49.088;11.886;2023-04-28T23:01:32;95477.81;;;14.77;57.87
27425;BME280;15244;49.088;11.886;2023-04-28T23:07:01;95479.75;;;14.76;57.78
27425;BME280;15244;49.088;11.886;2023-04-28T23:12:16;95480.22;;;14.71;57.77
27425;BME280;15244;49.088;11.886;2023-04-28T23:17:47;95472.44;;;14.69;57.77
27425;BME280;15244;49.088;11.886;2023-04-28T23:23:02;95473.19;;;14.70;57.89
27425;BME280;15244;49.088;11.886;2023-04-28T23:28:31;95471.22;;;14.70;57.82
27425;BME280;15244;49.088;11.886;2023-04-28T23:33:46;95473.56;;;14.72;58.05
27425;BME280;15244;49.088;11.886;2023-04-28T23:39:18;95471.59;;;14.72;58.31
27425;BME280;15244;49.088;11.886;2023-04-28T23:44:33;95467.31;;;14.71;58.12
27425;BME280;15244;49.088;11.886;2023-04-28T23:50:02;95461.81;;;14.71;58.26
27425;BME280;15244;49.088;11.886;2023-04-28T23:55:18;95458.72;;;14.69;58.08
